Time;durP1;ratioP1;P1;durP2;ratioP2;P2;SDS_P1;SDS_P2;PMS_P1;PMS_P2;Temp;Humidity;BMP_temperature;BMP_pressure;BME280_temperature;BME280_humidity;BME280_pressure;Samples;Min_cycle;Max_cycle;Signal;HPM_P1;HPM_P2
2022/06/04 00:01:04;;;;;;;10.23;7.10;;;;;;;10.71;100.00;100862.37;1691050;84;21035;-70
2022/06/04 00:03:31;;;;;;;8.40;7.28;;;;;;;10.71;100.00;100854.47;1719872;83;21088;-69
2022/06/04 00:05:58;;;;;;;8.68;7.80;;;;;;;10.69;100.00;100853.17;1665280;84;21115;-70
2022/06/04 00:08:28;;;;;;;11.97;7.05;;;;;;;10.70;100.00;100850.97;1719880;83;21662;-71
2022/06/04 00:16:28;;;;;;;9.95;6.53;;;;;;;10.76;100.00;100853.03;1663115;86;21131;-71
2022/06/04 00:18:54;;;;;;;10.88;7.00;;;;;;;10.78;100.00;100849.44;1690767;84;21610;-70
2022/06/04 00:21:22;;;;;;;10.18;6.50;;;;;;;10.80;100.00;100848.09;1657930;86;21061;-71
2022/06/04 00:23:51;;;;;;;6.70;6.05;;;;;;;10.82;100.00;100848.92;1718284;83;21135;-70
2022/06/04 00:26:18;;;;;;;9.48;6.50;;;;;;;10.86;100.00;100853.22;1718391;83;21069;-70
2022/06/04 00:28:46;;;;;;;8.83;6.22;;;;;;;10.89;100.00;100845.22;1718412;83;21041;-70
2022/06/04 00:31:14;;;;;;;9.83;6.80;;;;;;;10.92;100.00;100847.30;1718361;83;21092;-70
2022/06/04 00:33:41;;;;;;;8.08;6.37;;;;;;;10.96;100.00;100845.92;1718352;83;21572;-70
2022/06/04 00:36:08;;;;;;;7.60;6.58;;;;;;;10.98;100.00;100850.23;1718408;83;21262;-70
2022/06/04 00:38:35;;;;;;;8.98;6.50;;;;;;;11.01;100.00;100846.19;1718270;83;21033;-69
2022/06/04 00:41:17;;;;;;;8.83;6.70;;;;;;;11.06;100.00;100842.11;1747709;82;21014;-70
2022/06/04 00:44:19;;;;;;;10.25;6.42;;;;;;;11.09;100.00;100840.27;1740444;82;21042;-71
2022/06/04 00:47:07;;;;;;;9.43;6.60;;;;;;;11.11;100.00;100841.09;1747813;82;21073;-71
2022/06/04 00:49:35;;;;;;;;;;;;;;;11.13;100.00;100844.55;1750933;82;21262;-70
2022/06/04 00:52:02;;;;;;;12.33;5.85;;;;;;;11.15;100.00;100835.72;1748201;82;20482;-69
2022/06/04 00:54:28;;;;;;;6.72;5.67;;;;;;;11.17;100.00;100829.95;1748001;82;21018;-70
2022/06/04 00:57:09;;;;;;;8.65;6.35;;;;;;;11.19;100.00;100826.83;1748270;82;21502;-70
2022/06/04 00:59:56;;;;;;;10.20;5.97;;;;;;;11.22;100.00;100835.95;1741161;82;21037;-71
2022/06/04 01:02:41;;;;;;;10.65;6.00;;;;;;;11.24;100.00;100834.14;1748111;82;21251;-70
2022/06/04 01:05:53;;;;;;;8.40;6.53;;;;;;;11.24;100.00;100835.47;1732179;82;21054;-71
2022/06/04 01:08:46;;;;;;;9.93;6.37;;;;;;;11.25;100.00;100829.27;1747966;82;21070;-70
2022/06/04 01:11:20;;;;;;;8.20;5.95;;;;;;;11.25;100.00;100827.52;1719263;82;21060;-71
2022/06/04 01:14:11;;;;;;;8.68;6.55;;;;;;;11.28;100.00;100831.38;1718174;83;21036;-70
2022/06/04 01:17:00;;;;;;;12.40;6.80;;;;;;;11.31;100.00;100828.64;1718118;83;21277;-70
2022/06/04 01:20:09;;;;;;;9.45;6.50;;;;;;;11.34;100.00;100821.09;1708369;83;21079;-70
2022/06/04 01:22:44;;;;;;;7.00;6.30;;;;;;;11.38;100.00;100825.84;1721156;83;21094;-71
2022/06/04 01:25:23;;;;;;;9.20;6.30;;;;;;;11.39;100.00;100821.84;1746682;81;21057;-69
2022/06/04 01:28:06;;;;;;;9.68;6.65;;;;;;;11.43;100.00;100828.73;1714431;83;21143;-71
2022/06/04 01:30:41;;;;;;;8.68;6.97;;;;;;;11.45;100.00;100832.66;1720070;83;21506;-69
2022/06/04 01:33:35;;;;;;;9.28;6.78;;;;;;;11.46;100.00;100836.58;1690766;84;21047;-71
2022/06/04 01:36:15;;;;;;;10.10;7.05;;;;;;;11.47;100.00;100833.02;1690847;84;21028;-70
2022/06/04 01:39:04;;;;;;;13.80;7.78;;;;;;;11.50;100.00;100825.03;1690976;84;21055;-71
2022/06/04 01:41:45;;;;;;;11.70;8.88;;;;;;;11.55;100.00;100815.20;1691273;84;21627;-71
2022/06/04 01:44:19;;;;;;;13.75;8.03;;;;;;;11.59;100.00;100815.95;1680652;84;21572;-69
2022/06/04 01:46:51;;;;;;;11.00;7.83;;;;;;;11.62;100.00;100815.88;1690129;84;21013;-70
2022/06/04 01:49:28;;;;;;;10.72;7.50;;;;;;;11.71;100.00;100823.52;1691180;84;21084;-72
2022/06/04 01:51:59;;;;;;;8.83;7.05;;;;;;;11.82;100.00;100825.80;1691444;84;21627;-70
2022/06/04 01:54:41;;;;;;;;;;;;;;;11.92;100.00;100823.80;1693462;84;21604;-70
2022/06/04 01:57:14;;;;;;;7.70;6.15;;;;;;;12.00;100.00;100818.27;1719305;83;21713;-71
2022/06/04 01:59:52;;;;;;;8.35;6.10;;;;;;;12.04;100.00;100815.94;1713064;83;21061;-72
2022/06/04 02:02:24;;;;;;;7.40;5.80;;;;;;;12.10;100.00;100817.05;1719768;83;21619;-71
2022/06/04 02:04:53;;;;;;;6.17;5.53;;;;;;;12.14;100.00;100810.29;1691009;84;21067;-71
2022/06/04 02:07:30;;;;;;;6.67;5.83;;;;;;;12.18;100.00;100809.28;1720266;83;21061;-71
2022/06/04 02:10:33;;;;;;;7.40;5.53;;;;;;;12.17;100.00;100802.30;1691139;84;21274;-71
2022/06/04 02:13:06;;;;;;;11.20;5.85;;;;;;;12.24;100.00;100802.06;1718799;83;21543;-71
2022/06/04 02:15:58;;;;;;;7.25;5.92;;;;;;;12.27;100.00;100812.09;1693971;83;21055;-71
2022/06/04 02:18:25;;;;;;;12.35;6.05;;;;;;;12.32;100.00;100806.65;1719827;83;21060;-71
2022/06/04 02:20:53;;;;;;;7.53;5.20;;;;;;;12.36;100.00;100809.60;1719897;83;21055;-70
2022/06/04 02:23:20;;;;;;;7.50;5.50;;;;;;;12.41;100.00;100806.81;1708220;83;21129;-70
2022/06/04 02:25:46;;;;;;;6.55;5.35;;;;;;;12.46;100.00;100814.11;1698961;83;21076;-70
2022/06/04 02:28:13;;;;;;;6.42;4.97;;;;;;;12.48;100.00;100816.25;1699119;84;20998;-70
2022/06/04 02:31:11;;;;;;;10.55;5.53;;;;;;;12.51;100.00;100816.98;1699223;84;21054;-70
2022/06/04 02:34:02;;;;;;;10.15;5.97;;;;;;;12.55;100.00;100821.72;1699131;83;21585;-70
2022/06/04 02:37:04;;;;;;;6.72;5.17;;;;;;;12.59;100.00;100827.31;1699270;84;21449;-71
2022/06/04 02:39:42;;;;;;;11.18;5.03;;;;;;;12.64;100.00;100830.66;1698659;84;21069;-71
2022/06/04 02:42:26;;;;;;;6.97;4.75;;;;;;;12.71;100.00;100830.84;1698627;84;21601;-69
2022/06/04 02:45:13;;;;;;;6.97;5.08;;;;;;;12.77;100.00;100835.93;1698926;84;21013;-71
2022/06/04 02:47:47;;;;;;;5.17;4.67;;;;;;;12.84;100.00;100836.58;1695289;84;21049;-71
2022/06/04 02:50:32;;;;;;;6.97;4.87;;;;;;;12.92;100.00;100833.66;1699279;84;21162;-70
2022/06/04 02:52:58;;;;;;;11.10;5.25;;;;;;;12.99;100.00;100836.48;1698829;84;21064;-70
2022/06/04 02:55:30;;;;;;;11.90;5.35;;;;;;;13.11;100.00;100840.03;1656427;84;21119;-71
2022/06/04 02:58:01;;;;;;;5.65;4.30;;;;;;;13.18;100.00;100838.88;1699046;83;21504;-70
2022/06/04 03:00:27;;;;;;;5.55;4.85;;;;;;;13.27;100.00;100838.98;1699162;84;21045;-70
2022/06/04 03:02:55;;;;;;;9.43;5.65;;;;;;;13.37;100.00;100835.59;1699115;83;21092;-70
2022/06/04 03:05:25;;;;;;;6.47;4.95;;;;;;;13.45;100.00;100829.53;1698952;84;21022;-71
2022/06/04 03:07:54;;;;;;;7.10;5.28;;;;;;;13.57;100.00;100838.35;1699411;84;21052;-71
2022/06/04 03:10:25;;;;;;;7.12;5.05;;;;;;;13.66;100.00;100842.41;1698909;84;21021;-72
2022/06/04 03:12:53;;;;;;;7.67;5.10;;;;;;;13.75;100.00;100839.88;1673863;83;21101;-70
2022/06/04 03:15:21;;;;;;;10.65;5.45;;;;;;;13.87;100.00;100834.55;1665896;86;21089;-70
2022/06/04 03:17:48;;;;;;;6.33;5.12;;;;;;;13.96;100.00;100832.39;1665986;86;21605;-70
2022/06/04 03:20:19;;;;;;;10.70;5.50;;;;;;;14.06;100.00;100841.71;1666294;85;21587;-69
2022/06/04 03:22:47;;;;;;;7.30;5.12;;;;;;;14.17;100.00;100836.43;1667148;83;21093;-71
2022/06/04 03:25:13;;;;;;;6.25;5.03;;;;;;;14.29;100.00;100834.63;1651937;86;21115;-70
2022/06/04 03:27:40;;;;;;;6.95;5.20;;;;;;;14.44;100.00;100831.78;1652005;86;21166;-69
2022/06/04 03:30:08;;;;;;;9.90;5.75;;;;;;;14.56;100.00;100830.00;1651910;86;21096;-70
2022/06/04 03:32:35;;;;;;;8.03;5.28;;;;;;;14.68;100.00;100823.31;1653479;86;21517;-70
2022/06/04 03:35:02;;;;;;;5.20;4.10;;;;;;;14.82;100.00;100824.89;1680756;85;21208;-70
2022/06/04 03:37:29;;;;;;;10.25;5.28;;;;;;;14.97;100.00;100818.51;1671617;85;21636;-71
2022/06/04 03:39:57;;;;;;;8.13;5.08;;;;;;;15.14;100.00;100815.98;1651868;86;21577;-70
2022/06/04 03:42:23;;;;;;;7.55;5.03;;;;;;;15.31;100.00;100823.16;1651795;86;21073;-70
2022/06/04 03:44:50;;;;;;;6.50;4.90;;;;;;;15.47;100.00;100820.67;1651675;86;21112;-70
2022/06/04 03:47:17;;;;;;;8.40;4.80;;;;;;;15.62;100.00;100829.25;1651780;86;21099;-69
2022/06/04 03:49:45;;;;;;;8.93;4.50;;;;;;;15.78;99.68;100824.56;1671547;85;21078;-70
2022/06/04 03:52:15;;;;;;;11.60;4.87;;;;;;;15.91;96.94;100835.00;1671651;85;21088;-70
2022/06/04 03:54:54;;;;;;;7.00;4.20;;;;;;;16.08;95.93;100828.41;1671893;85;21647;-69
2022/06/04 03:57:38;;;;;;;6.17;4.28;;;;;;;16.26;93.49;100836.40;1671871;85;21068;-70
2022/06/04 04:00:17;;;;;;;8.55;3.95;;;;;;;16.45;91.01;100836.33;1671884;85;21066;-70
2022/06/04 04:02:52;;;;;;;5.95;3.83;;;;;;;16.62;88.29;100836.83;1660064;85;24582;-70
2022/06/04 04:05:28;;;;;;;4.55;3.10;;;;;;;16.77;84.63;100842.67;1660034;85;21803;-71
2022/06/04 04:07:55;;;;;;;4.37;2.77;;;;;;;16.89;84.50;100846.56;1671575;85;21117;-70
2022/06/04 04:10:24;;;;;;;4.22;2.85;;;;;;;17.07;82.99;100848.26;1671741;85;21135;-70
2022/06/04 04:12:53;;;;;;;3.33;2.60;;;;;;;17.19;80.81;100846.75;1659799;85;21552;-70
2022/06/04 04:15:22;;;;;;;3.95;2.52;;;;;;;17.31;80.02;100849.22;1659759;85;21056;-71
2022/06/04 04:17:49;;;;;;;4.75;2.60;;;;;;;17.42;77.31;100843.33;1656401;86;21113;-70
2022/06/04 04:20:26;;;;;;;3.25;2.50;;;;;;;17.45;75.03;100845.81;1680751;85;21033;-71
2022/06/04 04:22:53;;;;;;;3.98;2.83;;;;;;;17.40;74.10;100844.25;1670128;84;21532;-69
2022/06/04 04:25:23;;;;;;;4.83;2.80;;;;;;;17.42;74.35;100842.00;1680757;85;21099;-71
2022/06/04 04:27:50;;;;;;;7.95;3.33;;;;;;;17.43;74.29;100846.36;1671462;85;21183;-71
2022/06/04 04:30:19;;;;;;;3.10;2.80;;;;;;;17.45;75.38;100852.47;1680796;85;21186;-70
2022/06/04 04:32:46;;;;;;;4.22;2.80;;;;;;;17.53;75.00;100852.89;1671788;85;21040;-70
2022/06/04 04:35:19;;;;;;;9.08;3.33;;;;;;;17.60;74.19;100857.83;1680925;85;21081;-70
2022/06/04 04:37:46;;;;;;;6.35;2.98;;;;;;;17.67;73.64;100852.14;1671609;85;22078;-70
2022/06/04 04:40:15;;;;;;;3.40;2.87;;;;;;;17.77;73.53;100856.88;1680763;85;21573;-71
2022/06/04 04:42:42;;;;;;;3.20;2.83;;;;;;;17.90;73.78;100853.55;1671449;85;21170;-70
2022/06/04 04:45:10;;;;;;;5.97;3.15;;;;;;;18.08;72.30;100861.00;1680821;85;21733;-69
2022/06/04 04:47:40;;;;;;;3.92;2.80;;;;;;;18.26;72.79;100853.76;1680864;85;21084;-70
2022/06/04 04:50:17;;;;;;;5.20;2.90;;;;;;;18.46;71.78;100857.47;1653431;86;21132;-70
2022/06/04 04:52:45;;;;;;;5.62;3.10;;;;;;;18.64;71.26;100859.05;1671527;85;21117;-71
2022/06/04 04:55:12;;;;;;;4.05;3.17;;;;;;;18.89;71.19;100853.63;1680783;85;21818;-72
2022/06/04 04:57:39;;;;;;;6.20;2.87;;;;;;;19.21;71.03;100845.44;1671327;85;21153;-71
2022/06/04 05:00:07;;;;;;;4.10;2.90;;;;;;;19.53;69.99;100844.77;1680781;85;21076;-71
2022/06/04 05:02:34;;;;;;;6.55;3.08;;;;;;;19.91;67.97;100840.17;1681026;85;21561;-71
2022/06/04 05:05:01;;;;;;;11.18;2.92;;;;;;;20.21;66.71;100841.31;1671495;85;21045;-70
2022/06/04 05:07:28;;;;;;;6.33;2.70;;;;;;;20.42;65.99;100848.87;1680817;85;21157;-72
2022/06/04 05:09:55;;;;;;;5.20;2.65;;;;;;;20.63;65.19;100839.41;1671348;85;21077;-73
2022/06/04 05:12:22;;;;;;;8.25;2.77;;;;;;;20.89;63.88;100834.98;1680786;85;21073;-72
2022/06/04 05:14:50;;;;;;;3.98;2.40;;;;;;;20.96;64.18;100836.75;1699615;84;21089;-71
2022/06/04 05:17:18;;;;;;;5.65;2.30;;;;;;;20.87;63.19;100839.58;1709530;83;21093;-70
2022/06/04 05:19:45;;;;;;;4.10;2.40;;;;;;;20.81;63.43;100844.00;1699755;84;21164;-72
2022/06/04 05:22:11;;;;;;;2.65;2.45;;;;;;;20.73;63.64;100840.52;1709482;83;21018;-71
2022/06/04 05:24:38;;;;;;;6.00;2.55;;;;;;;20.65;64.01;100842.84;1709893;83;21745;-70
2022/06/04 05:27:05;;;;;;;4.60;2.52;;;;;;;20.67;64.40;100843.61;1715122;83;21090;-71
2022/06/04 05:29:34;;;;;;;3.27;2.40;;;;;;;20.84;63.53;100848.28;1715231;83;21090;-71
2022/06/04 05:32:02;;;;;;;8.05;2.52;;;;;;;21.03;63.31;100837.19;1715227;83;21161;-71
2022/06/04 05:34:30;;;;;;;4.37;2.40;;;;;;;21.27;63.13;100839.95;1715196;83;21109;-72
2022/06/04 05:38:04;;;;;;;5.33;2.83;;;;;;;21.66;61.06;100823.36;1796357;79;22558;-71
2022/06/04 05:40:31;;;;;;;2.65;2.20;;;;;;;21.82;58.85;100818.59;1756360;81;21522;-72
2022/06/04 05:42:57;;;;;;;3.90;2.45;;;;;;;21.97;56.61;100822.83;1756230;81;21049;-70
2022/06/04 05:45:24;;;;;;;3.80;2.20;;;;;;;22.10;56.03;100821.91;1756117;81;21076;-72
2022/06/04 05:47:51;;;;;;;3.90;2.47;;;;;;;22.27;55.90;100823.36;1756466;81;21089;-71
2022/06/04 05:50:18;;;;;;;3.10;2.00;;;;;;;22.52;55.20;100825.05;1756230;81;21041;-71
2022/06/04 05:52:44;;;;;;;6.20;2.25;;;;;;;22.86;54.49;100819.77;1756432;81;21584;-72
2022/06/04 05:55:11;;;;;;;2.33;1.87;;;;;;;23.18;53.08;100818.12;1756226;81;21217;-73
2022/06/04 05:57:38;;;;;;;4.35;1.95;;;;;;;23.46;51.57;100819.45;1756146;81;21016;-72
2022/06/04 06:00:08;;;;;;;6.90;3.00;;;;;;;23.77;51.59;100818.88;1756364;81;21034;-71
2022/06/04 06:02:37;;;;;;;5.75;2.27;;;;;;;24.05;50.66;100825.02;1722633;83;21100;-71
2022/06/04 06:05:04;;;;;;;3.25;1.95;;;;;;;24.18;50.50;100826.68;1723122;83;21048;-72
2022/06/04 06:07:31;;;;;;;2.58;1.82;;;;;;;24.24;48.68;100822.98;1723078;83;22201;-72
2022/06/04 06:09:58;;;;;;;2.10;1.90;;;;;;;24.27;47.39;100823.22;1722771;83;22508;-71
2022/06/04 06:12:25;;;;;;;2.05;1.85;;;;;;;24.27;47.48;100828.13;1717149;83;21036;-71
2022/06/04 06:14:52;;;;;;;4.28;1.77;;;;;;;24.25;47.64;100823.87;1708515;83;21103;-72
2022/06/04 06:17:19;;;;;;;3.10;1.70;;;;;;;24.34;46.86;100816.83;1691234;84;21060;-71
2022/06/04 06:19:45;;;;;;;4.47;1.77;;;;;;;24.61;43.52;100810.98;1691527;84;21218;-71
2022/06/04 06:22:12;;;;;;;3.72;1.77;;;;;;;24.94;40.75;100810.41;1691022;84;21638;-71
2022/06/04 06:24:38;;;;;;;4.50;1.90;;;;;;;25.24;40.71;100803.73;1691469;84;21115;-72
2022/06/04 06:27:08;;;;;;;3.37;1.70;;;;;;;25.48;41.14;100802.53;1691395;84;21056;-71
2022/06/04 06:29:35;;;;;;;2.08;1.60;;;;;;;25.54;40.40;100802.00;1691511;84;21096;-72
2022/06/04 06:32:05;;;;;;;2.58;1.57;;;;;;;25.65;40.48;100790.22;1666048;84;21042;-71
2022/06/04 06:34:33;;;;;;;3.00;1.35;;;;;;;25.62;39.57;100785.96;1691655;84;21063;-71
2022/06/04 06:36:59;;;;;;;2.22;1.50;;;;;;;25.76;39.74;100783.36;1685943;84;21089;-71
2022/06/04 06:39:26;;;;;;;1.95;1.30;;;;;;;25.96;36.49;100778.89;1678748;85;21108;-72
2022/06/04 06:41:52;;;;;;;2.70;1.22;;;;;;;26.20;36.93;100773.56;1678837;85;21072;-70
2022/06/04 06:44:18;;;;;;;1.32;1.20;;;;;;;26.32;35.80;100773.79;1679048;85;21588;-71
2022/06/04 06:46:47;;;;;;;1.75;1.10;;;;;;;26.39;35.64;100762.77;1678709;85;21044;-73
2022/06/04 06:49:25;;;;;;;4.17;1.30;;;;;;;26.20;35.19;100773.56;1678647;85;21112;-72
2022/06/04 06:51:56;;;;;;;2.90;1.40;;;;;;;25.90;34.40;100760.05;1678187;85;21069;-71
2022/06/04 06:54:26;;;;;;;1.75;1.60;;;;;;;25.73;35.00;100760.22;1678700;85;21569;-71
2022/06/04 06:56:53;;;;;;;1.50;1.27;;;;;;;25.57;35.07;100755.86;1678336;85;21316;-73
2022/06/04 06:59:20;;;;;;;2.00;1.50;;;;;;;25.70;35.42;100755.62;1678261;85;21046;-71
2022/06/04 07:01:49;;;;;;;6.17;1.98;;;;;;;26.30;33.86;100750.13;1678139;85;21633;-72
2022/06/04 07:04:16;;;;;;;4.25;2.10;;;;;;;26.62;33.40;100749.82;1678600;85;21065;-71
2022/06/04 07:06:47;;;;;;;2.50;1.37;;;;;;;26.77;33.57;100739.39;1678098;85;21119;-72
2022/06/04 07:09:18;;;;;;;1.72;1.40;;;;;;;27.07;33.15;100736.08;1678557;85;21264;-73
2022/06/04 07:11:44;;;;;;;5.67;1.40;;;;;;;26.96;33.12;100739.34;1678429;85;21688;-69
2022/06/04 07:14:13;;;;;;;2.75;1.52;;;;;;;26.70;33.78;100747.23;1678105;85;21243;-71
2022/06/04 07:16:40;;;;;;;3.12;1.42;;;;;;;26.61;33.27;100745.91;1712740;83;22147;-72
2022/06/04 07:19:08;;;;;;;3.37;1.30;;;;;;;26.56;32.72;100745.84;1712919;83;21739;-71
2022/06/04 07:21:36;;;;;;;1.65;1.55;;;;;;;26.57;33.43;100734.53;1712990;82;21093;-72
2022/06/04 07:24:03;;;;;;;2.00;1.52;;;;;;;26.75;32.63;100726.52;1713073;82;21085;-73
2022/06/04 07:26:29;;;;;;;4.15;1.72;;;;;;;27.20;32.15;100723.95;1712767;83;21104;-72
2022/06/04 07:28:56;;;;;;;1.60;1.22;;;;;;;27.39;31.77;100721.63;1712898;82;21132;-71
2022/06/04 07:31:23;;;;;;;3.52;1.32;;;;;;;27.34;31.34;100726.65;1712861;83;21090;-72
2022/06/04 07:33:52;;;;;;;2.22;1.12;;;;;;;27.27;31.37;100727.41;1713150;82;21746;-73
2022/06/04 07:36:22;;;;;;;2.25;1.20;;;;;;;27.68;30.69;100716.55;1712845;82;21153;-72
2022/06/04 07:38:49;;;;;;;1.40;1.25;;;;;;;27.78;30.51;100718.66;1725541;83;21109;-71
2022/06/04 07:41:28;;;;;;;2.90;1.20;;;;;;;27.75;29.61;100710.86;1725598;82;21033;-72
2022/06/04 07:43:55;;;;;;;1.85;1.15;;;;;;;27.92;28.19;100711.05;1725473;82;21069;-71
2022/06/04 07:46:23;;;;;;;2.35;1.20;;;;;;;28.09;28.87;100706.61;1725807;83;21219;-72
2022/06/04 07:48:50;;;;;;;2.52;1.10;;;;;;;28.47;28.50;100706.77;1725838;82;21057;-71
2022/06/04 07:51:17;;;;;;;1.82;1.00;;;;;;;28.83;27.58;100700.72;1725605;83;21057;-72
2022/06/04 07:53:44;;;;;;;1.55;1.32;;;;;;;28.85;26.52;100705.98;1725528;82;21108;-71
2022/06/04 07:56:14;;;;;;;1.37;1.12;;;;;;;28.69;26.99;100699.97;1725851;83;21050;-71
2022/06/04 07:58:40;;;;;;;1.52;1.10;;;;;;;28.54;27.40;100721.37;1725586;83;21190;-71
2022/06/04 08:01:08;;;;;;;1.15;1.05;;;;;;;28.38;26.96;100710.39;1726131;83;21072;-73
2022/06/04 08:03:36;;;;;;;1.40;1.10;;;;;;;28.26;27.19;100704.90;1726074;82;21100;-70
2022/06/04 08:06:05;;;;;;;3.02;1.27;;;;;;;28.27;27.52;100695.75;1726184;82;21017;-70
2022/06/04 08:08:32;;;;;;;5.35;1.27;;;;;;;28.33;27.14;100700.55;1725970;83;21077;-72
2022/06/04 08:10:59;;;;;;;1.30;1.15;;;;;;;28.02;27.41;100706.38;1722991;82;21130;-71
2022/06/04 08:13:30;;;;;;;3.17;1.20;;;;;;;27.59;27.78;100699.37;1658019;85;21084;-71
2022/06/04 08:15:58;;;;;;;2.58;0.93;;;;;;;27.25;28.34;100700.52;1657897;86;21076;-71
2022/06/04 08:18:25;;;;;;;2.62;1.20;;;;;;;27.03;28.90;100711.69;1657887;86;21083;-71
2022/06/04 08:20:53;;;;;;;3.08;1.30;;;;;;;26.82;28.99;100701.96;1657849;86;21092;-71
2022/06/04 08:23:20;;;;;;;3.22;1.35;;;;;;;26.90;29.27;100700.73;1657885;86;22125;-70
2022/06/04 08:25:50;;;;;;;0.80;0.80;;;;;;;27.22;28.59;100695.42;1658082;86;21057;-71
2022/06/04 08:28:18;;;;;;;4.25;1.30;;;;;;;27.57;27.99;100695.12;1657815;86;21049;-71
2022/06/04 08:30:45;;;;;;;1.75;1.10;;;;;;;27.86;28.46;100696.28;1658016;86;21069;-73
2022/06/04 08:33:12;;;;;;;4.12;1.20;;;;;;;27.98;29.06;100697.73;1658129;86;21022;-72
2022/06/04 08:35:38;;;;;;;6.62;1.57;;;;;;;28.26;27.85;100685.43;1657950;86;21553;-73
2022/06/04 08:38:06;;;;;;;1.85;1.30;;;;;;;28.47;27.28;100678.83;1651105;86;21089;-72
2022/06/04 08:40:39;;;;;;;1.37;1.02;;;;;;;28.51;27.03;100682.92;1686164;85;21108;-72
2022/06/04 08:43:32;;;;;;;3.20;0.85;;;;;;;28.34;27.21;100684.63;1652761;86;21578;-72
2022/06/04 08:46:02;;;;;;;3.05;1.02;;;;;;;28.27;27.38;100672.73;1653013;86;21070;-73
2022/06/04 08:48:33;;;;;;;1.27;1.00;;;;;;;28.28;27.43;100675.80;1653086;86;22450;-72
2022/06/04 08:50:59;;;;;;;1.97;0.90;;;;;;;28.19;26.87;100664.91;1686258;85;21033;-71
2022/06/04 08:53:28;;;;;;;4.35;1.30;;;;;;;28.18;27.24;100672.70;1652965;86;21076;-73
2022/06/04 08:59:25;;;;;;;3.90;1.00;;;;;;;28.14;27.45;100674.01;1652909;86;21624;-74
2022/06/04 09:02:00;;;;;;;2.37;0.95;;;;;;;28.36;27.21;100673.13;1621232;86;21149;-72
2022/06/04 09:04:54;;;;;;;4.40;1.35;;;;;;;28.49;27.25;100666.82;1653109;86;21624;-73
2022/06/04 09:07:34;;;;;;;2.10;1.30;;;;;;;28.35;26.19;100662.81;1686101;85;21049;-71
2022/06/04 09:10:21;;;;;;;2.22;1.12;;;;;;;27.64;27.78;100665.09;1686332;85;21076;-71
2022/06/04 09:15:42;;;;;;;1.52;1.37;;;;;;;27.44;28.45;100660.83;1888225;76;22128;-73
2022/06/04 09:18:18;;;;;;;1.12;0.93;;;;;;;27.40;27.89;100662.97;1789090;80;21128;-73
2022/06/04 09:20:50;;;;;;;1.72;1.10;;;;;;;27.24;27.72;100660.97;1820079;78;21198;-73
2022/06/04 09:23:37;;;;;;;1.80;1.10;;;;;;;27.27;28.56;100657.95;1820879;78;20965;-72
2022/06/04 09:26:19;;;;;;;2.42;1.00;;;;;;;27.55;28.33;100652.48;1821168;78;21141;-73
2022/06/04 09:29:15;;;;;;;1.17;1.07;;;;;;;28.00;28.64;100647.52;1821757;78;21040;-73
2022/06/04 09:31:55;;;;;;;2.62;1.22;;;;;;;28.18;26.75;100653.73;1821726;78;21537;-73
2022/06/04 09:34:42;;;;;;;3.77;0.95;;;;;;;28.34;27.05;100650.77;1789773;78;21129;-73
2022/06/04 09:37:10;;;;;;;2.33;1.20;;;;;;;28.83;25.97;100649.22;1821209;78;21004;-72
2022/06/04 09:39:41;;;;;;;2.12;1.17;;;;;;;28.92;27.03;100633.84;1822041;78;22247;-73
2022/06/04 09:42:22;;;;;;;1.67;1.27;;;;;;;29.10;26.75;100636.95;1824864;78;21048;-73
2022/06/04 09:44:59;;;;;;;1.50;1.00;;;;;;;29.30;26.63;100634.81;1811333;79;21000;-73
2022/06/04 09:47:47;;;;;;;1.72;1.00;;;;;;;29.36;25.94;100624.66;1810964;79;22225;-74
2022/06/04 09:50:31;;;;;;;2.37;1.10;;;;;;;29.50;26.28;100629.42;1821484;78;21017;-72
2022/06/04 09:53:27;;;;;;;1.07;0.98;;;;;;;29.52;26.26;100627.39;1797024;78;22103;-72
2022/06/04 09:56:10;;;;;;;1.62;1.15;;;;;;;29.41;25.71;100631.27;1787320;79;21036;-73
2022/06/04 09:58:43;;;;;;;2.05;1.10;;;;;;;29.15;26.17;100627.81;1788390;80;21053;-72
2022/06/04 10:01:20;;;;;;;3.05;1.00;;;;;;;28.74;26.60;100631.73;1750953;82;21924;-72
2022/06/04 10:04:04;;;;;;;5.05;1.30;;;;;;;28.40;26.71;100625.77;1757862;81;21037;-72
2022/06/04 10:06:31;;;;;;;2.60;1.10;;;;;;;27.99;27.34;100628.20;1747956;81;21643;-73
2022/06/04 10:11:55;;;;;;;3.62;1.40;;;;;;;27.39;27.83;100634.24;1753163;81;21064;-72
2022/06/04 10:14:39;;;;;;;2.02;1.00;;;;;;;27.51;27.59;100632.16;1787299;80;21173;-73
2022/06/04 10:17:19;;;;;;;2.37;1.10;;;;;;;27.77;27.81;100623.61;1794185;80;22108;-72
2022/06/04 10:19:54;;;;;;;2.90;1.30;;;;;;;28.01;27.56;100618.06;1759661;81;21024;-72
2022/06/04 10:22:20;;;;;;;2.15;1.00;;;;;;;28.30;27.58;100612.34;1794230;80;21053;-73
2022/06/04 10:24:57;;;;;;;2.25;1.25;;;;;;;28.19;26.72;100613.45;1760091;81;21030;-72
2022/06/04 10:27:39;;;;;;;2.55;1.32;;;;;;;28.08;26.92;100611.01;1793770;80;21879;-73
2022/06/04 10:30:19;;;;;;;1.32;1.17;;;;;;;28.13;27.07;100612.73;1759795;81;21042;-73
2022/06/04 10:33:01;;;;;;;;;;;;;;;28.38;26.85;100604.76;1796634;79;21014;-73
2022/06/04 10:35:49;;;;;;;1.45;1.10;;;;;;;28.48;26.79;100591.96;1785692;80;20202;-73
2022/06/04 10:38:37;;;;;;;2.77;1.02;;;;;;;28.67;26.99;100590.88;1785737;79;21042;-73
2022/06/04 10:41:13;;;;;;;2.22;1.20;;;;;;;29.13;26.73;100597.33;1759599;81;21097;-73
2022/06/04 10:44:03;;;;;;;3.30;1.15;;;;;;;29.54;26.15;100597.36;1793396;80;21088;-73
2022/06/04 10:47:03;;;;;;;3.55;1.10;;;;;;;29.35;26.02;100598.02;1759281;81;21056;-73
2022/06/04 10:50:03;;;;;;;1.57;1.10;;;;;;;29.32;26.21;100594.30;1793645;79;21081;-73
2022/06/04 10:52:49;;;;;;;1.80;1.02;;;;;;;29.59;25.71;100592.30;1759568;81;21009;-74
2022/06/04 10:55:27;;;;;;;1.92;1.20;;;;;;;30.05;25.98;100584.48;1793647;80;21153;-73
2022/06/04 10:58:29;;;;;;;2.80;1.77;;;;;;;29.74;24.83;100593.84;1759410;81;21057;-73
2022/06/04 11:01:27;;;;;;;2.17;1.27;;;;;;;29.20;25.88;100590.22;1793932;80;21056;-73
2022/06/04 11:04:17;;;;;;;1.70;1.10;;;;;;;28.40;25.69;100579.72;1748625;81;21564;-73
2022/06/04 11:06:58;;;;;;;2.87;1.20;;;;;;;27.87;26.51;100572.64;1793992;80;21068;-74
2022/06/04 11:09:35;;;;;;;2.08;1.10;;;;;;;27.93;27.07;100576.04;1759725;81;21811;-73
2022/06/04 11:12:32;;;;;;;2.77;1.30;;;;;;;28.07;26.39;100582.25;1777058;80;21028;-73
2022/06/04 11:15:04;;;;;;;2.08;1.15;;;;;;;28.18;26.01;100575.21;1712707;82;21477;-73
2022/06/04 11:17:41;;;;;;;1.92;1.30;;;;;;;28.44;26.33;100570.27;1726973;81;22222;-74
2022/06/04 11:20:21;;;;;;;2.12;1.60;;;;;;;28.69;26.02;100571.25;1677625;83;21095;-74
2022/06/04 11:23:09;;;;;;;5.28;1.90;;;;;;;29.02;25.83;100563.20;1711790;83;21118;-72
2022/06/04 11:25:38;;;;;;;1.72;1.17;;;;;;;29.25;25.58;100556.66;1700321;83;21100;-72
2022/06/04 11:28:11;;;;;;;4.12;1.20;;;;;;;29.03;25.22;100562.17;1711574;83;21083;-73
2022/06/04 11:30:51;;;;;;;3.72;0.93;;;;;;;28.89;25.77;100555.53;1719862;83;21118;-72
2022/06/04 11:33:28;;;;;;;1.57;1.17;;;;;;;29.09;25.71;100558.00;1719517;83;21102;-73
2022/06/04 11:36:09;;;;;;;2.00;1.10;;;;;;;29.09;25.18;100558.84;1713388;83;21256;-72
2022/06/04 11:38:42;;;;;;;;;;;;;;;28.77;25.56;100560.42;1722251;83;21028;-74
2022/06/04 11:41:34;;;;;;;2.27;1.10;;;;;;;28.37;26.13;100555.67;1719230;83;20287;-72
2022/06/04 11:44:15;;;;;;;3.05;1.22;;;;;;;28.10;26.48;100544.02;1719380;83;21059;-73
2022/06/04 11:47:23;;;;;;;2.17;1.30;;;;;;;28.14;27.51;100544.05;1719282;83;21059;-73
2022/06/04 11:50:14;;;;;;;2.27;1.20;;;;;;;28.35;26.07;100536.87;1719108;83;21046;-72
2022/06/04 11:53:13;;;;;;;;;;;;;;;28.54;26.18;100543.07;1722112;83;21063;-72
2022/06/04 11:55:56;;;;;;;2.45;1.07;;;;;;;28.36;26.71;100543.13;1719493;83;20172;-73
2022/06/04 11:58:46;;;;;;;3.33;1.20;;;;;;;28.32;27.69;100527.72;1719836;83;21099;-72
2022/06/04 12:01:19;;;;;;;4.20;1.20;;;;;;;28.61;27.08;100533.27;1718951;83;21516;-74
2022/06/04 12:03:55;;;;;;;7.50;4.58;;;;;;;28.82;26.50;100539.08;1717606;83;21326;-72
2022/06/04 12:06:48;;;;;;;6.30;3.60;;;;;;;28.94;26.97;100530.64;1719559;83;21083;-72
2022/06/04 12:09:29;;;;;;;2.58;1.42;;;;;;;28.96;26.64;100526.74;1719806;83;21074;-73
2022/06/04 12:12:10;;;;;;;2.37;1.37;;;;;;;28.58;26.67;100523.61;1734009;82;21109;-73